Terminal Aerodrome Forecast
Issued by NWS

Home | Current Version | Previous Version | Text Only | Print | Product List | Glossary On
Versions: 1 2 3 4 5 6 7 8 9 10 11 12 13 14 15 16 17 18 19 20 21 22
000
FTUS41 KBOX 311726
TAFHYA
TAF
KHYA 311726Z 3118/0118 21012KT 3SM BR OVC005
     FM312100 22010KT P6SM SCT010
     FM010000 22008KT P6SM SCT250
     FM010400 30007KT P6SM FEW250
     FM010700 33006KT P6SM SCT003
     FM011200 02009KT P6SM SKC=

USA.gov is the U.S. government's official web portal to all federal, state and local government web resources and services.